createdAt,value
2022-10-16T00:01:12.360Z,3.30
2022-10-16T00:03:40.714Z,3.65
2022-10-16T00:06:09.092Z,3.78
2022-10-16T00:08:36.804Z,3.58
2022-10-16T00:11:06.567Z,3.38
2022-10-16T00:13:34.659Z,3.63
2022-10-16T00:16:02.551Z,4.00
2022-10-16T00:18:30.211Z,3.63
2022-10-16T00:21:19.131Z,3.65
2022-10-16T00:23:46.120Z,3.65
2022-10-16T00:26:15.319Z,3.67
2022-10-16T00:28:52.459Z,3.70
2022-10-16T00:31:21.272Z,4.15
2022-10-16T00:33:48.360Z,3.80
2022-10-16T00:36:18.830Z,3.90
2022-10-16T00:38:46.179Z,3.50
2022-10-16T00:41:15.957Z,3.60
2022-10-16T00:43:51.205Z,3.20
2022-10-16T00:46:24.340Z,3.42
2022-10-16T00:48:55.772Z,3.47
2022-10-16T00:51:29.240Z,3.10
2022-10-16T00:53:56.475Z,3.50
2022-10-16T00:56:23.441Z,2.85
2022-10-16T00:58:50.258Z,3.17
2022-10-16T01:01:16.897Z,3.22
2022-10-16T01:03:43.453Z,3.33
2022-10-16T01:09:04.291Z,3.05
2022-10-16T01:11:44.391Z,2.63
2022-10-16T01:14:32.978Z,2.85
2022-10-16T01:17:06.814Z,3.00
2022-10-16T01:19:58.636Z,2.83
2022-10-16T01:22:30.973Z,2.50
2022-10-16T01:25:06.276Z,2.80
2022-10-16T01:27:36.981Z,2.83
2022-10-16T01:30:11.607Z,2.63
2022-10-16T01:35:19.496Z,2.28
2022-10-16T01:37:53.121Z,2.33
2022-10-16T01:40:22.195Z,2.60
2022-10-16T01:43:04.870Z,2.50
2022-10-16T01:45:33.196Z,2.30
2022-10-16T01:48:05.067Z,2.50
2022-10-16T01:50:35.005Z,2.55
2022-10-16T01:53:04.573Z,2.50
2022-10-16T01:55:36.346Z,2.10
2022-10-16T01:58:08.220Z,2.53
2022-10-16T02:00:37.496Z,2.30
2022-10-16T02:03:05.794Z,2.47
2022-10-16T02:05:39.342Z,2.08
2022-10-16T02:08:06.025Z,2.13
2022-10-16T02:10:33.451Z,2.28
2022-10-16T02:13:24.908Z,2.10
2022-10-16T02:15:51.437Z,1.90
2022-10-16T02:18:21.552Z,2.35
2022-10-16T02:21:20.147Z,2.25
2022-10-16T02:23:53.459Z,1.98
2022-10-16T02:26:29.158Z,2.30
2022-10-16T02:29:05.598Z,2.03
2022-10-16T02:31:36.281Z,1.90
2022-10-16T02:34:06.065Z,2.00
2022-10-16T02:36:34.782Z,1.95
2022-10-16T02:39:02.473Z,1.80
2022-10-16T02:41:29.026Z,1.88
2022-10-16T02:43:56.140Z,1.80
2022-10-16T02:46:22.750Z,2.03
2022-10-16T02:48:49.302Z,1.77
2022-10-16T02:51:15.833Z,1.70
2022-10-16T02:53:42.365Z,2.00
2022-10-16T02:56:08.976Z,1.80
2022-10-16T02:58:35.807Z,1.85
2022-10-16T03:01:02.738Z,2.00
2022-10-16T03:03:29.601Z,1.63
2022-10-16T03:05:56.178Z,2.00
2022-10-16T03:08:24.609Z,1.90
2022-10-16T03:10:52.306Z,2.13
2022-10-16T03:13:21.315Z,2.20
2022-10-16T03:15:47.965Z,2.10
2022-10-16T03:18:14.592Z,2.20
2022-10-16T03:20:41.431Z,1.83
2022-10-16T03:23:09.163Z,1.88
2022-10-16T03:25:35.834Z,2.10
2022-10-16T03:28:02.638Z,2.00
2022-10-16T03:30:29.539Z,2.10
2022-10-16T03:32:56.069Z,1.70
2022-10-16T03:35:23.929Z,1.77
2022-10-16T03:37:51.098Z,2.00
2022-10-16T03:40:18.251Z,1.58
2022-10-16T03:42:45.084Z,1.85
2022-10-16T03:45:12.474Z,1.98
2022-10-16T03:47:39.039Z,1.65
2022-10-16T03:50:06.141Z,1.73
2022-10-16T03:52:33.156Z,2.05
2022-10-16T03:54:59.950Z,1.90
2022-10-16T03:57:26.698Z,2.00
2022-10-16T03:59:53.411Z,1.90
2022-10-16T04:02:19.988Z,1.70
2022-10-16T04:04:46.488Z,1.90
2022-10-16T04:07:13.054Z,2.00
2022-10-16T04:09:39.523Z,2.10
2022-10-16T04:12:06.065Z,1.70
2022-10-16T04:14:32.622Z,1.70
2022-10-16T04:16:59.178Z,2.35
2022-10-16T04:19:26.149Z,1.88
2022-10-16T04:21:53.022Z,1.92
2022-10-16T04:24:19.517Z,1.85
2022-10-16T04:26:46.025Z,1.90
2022-10-16T04:29:12.546Z,1.85
2022-10-16T04:31:39.067Z,1.60
2022-10-16T04:34:05.541Z,2.20
2022-10-16T04:36:32.042Z,1.70
2022-10-16T04:38:58.513Z,1.85
2022-10-16T04:41:24.999Z,2.20
2022-10-16T04:43:51.610Z,1.90
2022-10-16T04:46:18.113Z,1.83
2022-10-16T04:48:44.559Z,2.13
2022-10-16T04:51:11.567Z,2.28
2022-10-16T04:53:38.086Z,2.10
2022-10-16T04:56:04.861Z,2.22
2022-10-16T04:58:31.373Z,2.00
2022-10-16T05:00:57.896Z,2.13
2022-10-16T05:03:24.422Z,2.03
2022-10-16T05:05:50.997Z,2.00
2022-10-16T05:08:17.837Z,1.85
2022-10-16T05:10:45.259Z,1.90
2022-10-16T05:13:12.547Z,2.30
2022-10-16T05:15:39.229Z,2.13
2022-10-16T05:18:05.905Z,2.10
2022-10-16T05:20:32.500Z,2.13
2022-10-16T05:22:59.187Z,2.35
2022-10-16T05:25:26.141Z,2.25
2022-10-16T05:27:52.657Z,2.33
2022-10-16T05:30:19.700Z,2.22
2022-10-16T05:32:50.782Z,2.03
2022-10-16T05:35:19.123Z,2.10
2022-10-16T05:37:46.200Z,1.98
2022-10-16T05:40:14.024Z,2.20
2022-10-16T05:42:41.245Z,2.10
2022-10-16T05:45:10.798Z,2.30
2022-10-16T05:47:37.610Z,2.30
2022-10-16T05:50:05.282Z,2.22
2022-10-16T05:52:31.762Z,2.35
2022-10-16T05:54:58.274Z,2.10
2022-10-16T05:57:25.112Z,2.53
2022-10-16T05:59:52.007Z,2.38
2022-10-16T06:02:18.473Z,2.15
2022-10-16T06:04:44.966Z,2.40
2022-10-16T06:07:11.790Z,2.22
2022-10-16T06:09:38.274Z,2.20
2022-10-16T06:12:04.985Z,2.63
2022-10-16T06:14:31.748Z,2.42
2022-10-16T06:16:58.330Z,2.47
2022-10-16T06:19:24.914Z,2.42
2022-10-16T06:21:51.449Z,2.22
2022-10-16T06:24:18.020Z,2.42
2022-10-16T06:26:44.574Z,1.95
2022-10-16T06:29:11.176Z,2.28
2022-10-16T06:31:37.837Z,2.13
2022-10-16T06:34:06.619Z,2.05
2022-10-16T06:36:33.199Z,2.10
2022-10-16T06:38:59.737Z,2.40
2022-10-16T06:41:26.228Z,2.08
2022-10-16T06:43:53.309Z,2.30
2022-10-16T06:46:22.789Z,2.10
2022-10-16T06:48:49.552Z,2.03
2022-10-16T06:51:18.418Z,2.05
2022-10-16T06:54:02.396Z,1.98
2022-10-16T06:56:31.995Z,2.28
2022-10-16T06:58:59.362Z,2.40
2022-10-16T07:01:26.825Z,2.33
2022-10-16T07:03:53.981Z,3.15
2022-10-16T07:06:23.599Z,2.42
2022-10-16T07:08:50.725Z,2.72
2022-10-16T07:11:23.100Z,2.63
2022-10-16T07:13:54.470Z,2.75
2022-10-16T07:16:29.677Z,3.00
2022-10-16T07:19:01.445Z,2.22
2022-10-16T07:21:31.024Z,2.40
2022-10-16T07:24:00.178Z,2.53
2022-10-16T07:26:28.224Z,2.22
2022-10-16T07:28:55.076Z,2.80
2022-10-16T07:31:22.208Z,2.40
2022-10-16T07:33:49.835Z,2.35
2022-10-16T07:36:18.888Z,2.35
2022-10-16T07:38:45.765Z,2.47
2022-10-16T07:41:16.088Z,2.50
2022-10-16T07:43:50.075Z,2.58
2022-10-16T07:46:17.945Z,2.42
2022-10-16T07:48:49.018Z,3.03
2022-10-16T07:51:17.714Z,2.25
2022-10-16T07:53:44.416Z,2.35
2022-10-16T07:56:12.677Z,2.22
2022-10-16T07:58:39.339Z,2.30
2022-10-16T08:01:08.287Z,2.38
2022-10-16T08:03:35.331Z,2.47
2022-10-16T08:06:02.817Z,2.38
2022-10-16T08:08:29.495Z,2.42
2022-10-16T08:10:56.019Z,2.78
2022-10-16T08:13:22.660Z,2.72
2022-10-16T08:15:49.208Z,2.42
2022-10-16T08:18:16.703Z,2.25
2022-10-16T08:20:44.071Z,2.53
2022-10-16T08:23:12.791Z,2.83
2022-10-16T08:25:39.768Z,2.10
2022-10-16T08:28:08.408Z,2.40
2022-10-16T08:30:35.271Z,2.67
2022-10-16T08:33:02.751Z,2.28
2022-10-16T08:35:29.545Z,2.17
2022-10-16T08:37:56.145Z,2.10
2022-10-16T08:40:29.196Z,1.85
2022-10-16T08:43:20.585Z,2.20
2022-10-16T08:46:24.666Z,2.20
2022-10-16T08:48:57.979Z,2.13
2022-10-16T08:51:31.911Z,2.30
2022-10-16T08:54:22.320Z,2.03
2022-10-16T08:56:48.937Z,2.10
2022-10-16T08:59:17.789Z,2.22
2022-10-16T09:01:47.454Z,2.00
2022-10-16T09:04:56.433Z,2.00
2022-10-16T09:07:39.515Z,1.98
2022-10-16T09:10:12.393Z,1.90
2022-10-16T09:12:52.908Z,2.42
2022-10-16T09:15:33.177Z,1.85
2022-10-16T09:18:13.699Z,1.83
2022-10-16T09:20:54.310Z,1.73
2022-10-16T09:23:34.418Z,2.05
2022-10-16T09:26:01.166Z,1.80
2022-10-16T09:28:27.727Z,1.92
2022-10-16T09:30:55.189Z,1.90
2022-10-16T09:33:26.967Z,2.05
2022-10-16T09:35:56.977Z,1.90
2022-10-16T09:38:34.776Z,1.60
2022-10-16T09:41:04.400Z,1.70
2022-10-16T09:43:49.585Z,1.70
2022-10-16T09:46:29.312Z,1.85
2022-10-16T09:48:59.351Z,1.60
2022-10-16T09:51:33.257Z,2.00
2022-10-16T09:54:13.478Z,1.70
2022-10-16T09:56:40.502Z,1.70
2022-10-16T09:59:13.734Z,1.60
2022-10-16T10:02:12.118Z,1.70
2022-10-16T10:04:42.763Z,1.50
2022-10-16T10:07:19.853Z,1.40
2022-10-16T10:09:46.922Z,1.70
2022-10-16T10:12:27.060Z,1.48
2022-10-16T10:14:59.039Z,1.63
2022-10-16T10:17:28.572Z,1.70
2022-10-16T10:20:01.712Z,1.73
2022-10-16T10:22:46.619Z,1.70
2022-10-16T10:25:13.322Z,1.40
2022-10-16T10:28:22.393Z,1.60
2022-10-16T10:31:09.268Z,1.67
2022-10-16T10:33:53.389Z,1.40
2022-10-16T10:36:31.246Z,1.55
2022-10-16T10:39:01.377Z,1.60
2022-10-16T10:41:56.507Z,1.55
2022-10-16T10:44:48.302Z,1.73
2022-10-16T10:47:38.338Z,1.67
2022-10-16T10:50:22.841Z,1.40
2022-10-16T10:55:41.503Z,1.23
2022-10-16T10:58:26.276Z,1.30
2022-10-16T11:01:06.486Z,1.20
2022-10-16T11:04:20.383Z,1.25
2022-10-16T11:06:52.308Z,1.30
2022-10-16T11:09:27.138Z,1.42
2022-10-16T11:12:06.631Z,1.20
2022-10-16T11:14:58.279Z,1.40
2022-10-16T11:17:43.089Z,1.40
2022-10-16T11:20:18.986Z,1.60
2022-10-16T11:22:54.128Z,1.40
2022-10-16T11:25:31.914Z,1.40
2022-10-16T11:28:21.564Z,1.20
2022-10-16T11:31:06.475Z,1.98
2022-10-16T11:33:48.033Z,1.55
2022-10-16T11:36:25.161Z,1.50
2022-10-16T11:39:09.861Z,1.30
2022-10-16T11:41:50.174Z,1.67
2022-10-16T11:45:24.224Z,1.30
2022-10-16T11:48:03.207Z,1.30
2022-10-16T11:50:57.216Z,1.20
2022-10-16T11:53:39.263Z,1.80
2022-10-16T11:56:06.416Z,1.48
2022-10-16T11:58:40.052Z,1.60
2022-10-16T12:01:09.643Z,1.70
2022-10-16T12:04:06.617Z,1.40
2022-10-16T12:06:45.202Z,1.45
2022-10-16T12:09:36.238Z,1.48
2022-10-16T12:12:02.961Z,1.40
2022-10-16T12:14:29.411Z,1.80
2022-10-16T12:17:01.681Z,1.60
2022-10-16T12:19:30.292Z,1.52
2022-10-16T12:21:59.902Z,1.90
2022-10-16T12:24:39.067Z,1.42
2022-10-16T12:27:24.147Z,1.70
2022-10-16T12:29:56.908Z,1.40
2022-10-16T12:32:47.709Z,1.80
2022-10-16T12:35:28.287Z,1.60
2022-10-16T12:37:55.707Z,1.63
2022-10-16T12:40:34.266Z,1.60
2022-10-16T12:43:13.525Z,1.60
2022-10-16T12:45:40.179Z,1.70
2022-10-16T12:48:22.573Z,1.88
2022-10-16T12:50:49.597Z,1.65
2022-10-16T12:53:25.412Z,1.50
2022-10-16T12:56:18.263Z,1.55
2022-10-16T12:59:01.360Z,1.70
2022-10-16T13:02:02.986Z,1.70
2022-10-16T13:04:41.480Z,1.65
2022-10-16T13:07:19.837Z,1.60
2022-10-16T13:10:27.714Z,1.70
2022-10-16T13:13:21.928Z,1.80
2022-10-16T13:15:48.527Z,1.77
2022-10-16T13:18:42.802Z,1.85
2022-10-16T13:21:22.039Z,1.90
2022-10-16T13:23:57.590Z,1.60
2022-10-16T13:26:44.686Z,1.75
2022-10-16T13:29:11.491Z,1.67
2022-10-16T13:31:40.070Z,1.60
2022-10-16T13:34:13.562Z,1.60
2022-10-16T13:36:51.214Z,1.40
2022-10-16T13:39:26.747Z,2.00
2022-10-16T13:42:11.109Z,1.60
2022-10-16T13:47:17.054Z,3.95
2022-10-16T13:49:43.985Z,3.20
2022-10-16T13:52:22.164Z,2.92
2022-10-16T13:54:49.043Z,2.60
2022-10-16T13:57:26.753Z,2.28
2022-10-16T13:59:54.781Z,2.13
2022-10-16T14:02:28.220Z,2.13
2022-10-16T14:04:56.464Z,1.80
2022-10-16T14:07:27.595Z,2.20
2022-10-16T14:09:55.464Z,1.90
2022-10-16T14:12:25.583Z,1.70
2022-10-16T14:14:56.448Z,1.40
2022-10-16T14:17:36.090Z,1.80
2022-10-16T14:20:07.056Z,2.03
2022-10-16T14:22:38.673Z,1.90
2022-10-16T14:25:20.615Z,1.48
2022-10-16T14:30:36.917Z,1.30
2022-10-16T14:33:06.825Z,1.58
2022-10-16T14:35:39.596Z,1.67
2022-10-16T14:38:18.239Z,2.05
2022-10-16T14:40:49.422Z,1.60
2022-10-16T14:43:23.792Z,1.67
2022-10-16T14:45:54.144Z,1.70
2022-10-16T14:48:21.737Z,1.52
2022-10-16T14:50:48.315Z,1.98
2022-10-16T14:53:15.505Z,1.67
2022-10-16T14:55:43.156Z,1.67
2022-10-16T14:58:18.917Z,1.45
2022-10-16T15:00:45.963Z,1.83
2022-10-16T15:03:12.644Z,1.80
2022-10-16T15:05:39.271Z,1.48
2022-10-16T15:08:05.946Z,1.48
2022-10-16T15:10:36.933Z,1.80
2022-10-16T15:13:03.404Z,1.38
2022-10-16T15:15:38.856Z,1.40
2022-10-16T15:18:06.090Z,1.40
2022-10-16T15:20:36.516Z,1.63
2022-10-16T15:23:21.570Z,1.90
2022-10-16T15:25:57.599Z,1.77
2022-10-16T15:28:26.706Z,2.10
2022-10-16T15:30:55.604Z,1.63
2022-10-16T15:33:25.740Z,1.73
2022-10-16T15:35:53.554Z,1.80
2022-10-16T15:38:22.164Z,1.27
2022-10-16T15:40:49.922Z,1.48
2022-10-16T15:43:16.888Z,1.30
2022-10-16T15:45:43.571Z,1.70
2022-10-16T15:48:16.953Z,1.45
2022-10-16T15:53:11.003Z,1.65
2022-10-16T15:55:38.805Z,1.58
2022-10-16T15:58:06.368Z,1.60
2022-10-16T16:00:33.201Z,1.70
2022-10-16T16:02:59.735Z,1.70
2022-10-16T16:05:26.544Z,1.40
2022-10-16T16:07:53.034Z,1.67
2022-10-16T16:10:21.529Z,1.63
2022-10-16T16:12:55.542Z,1.60
2022-10-16T16:15:23.037Z,1.17
2022-10-16T16:17:50.274Z,1.45
2022-10-16T16:20:16.937Z,1.50
2022-10-16T16:22:43.493Z,1.67
2022-10-16T16:25:10.168Z,1.50
2022-10-16T16:27:39.255Z,1.33
2022-10-16T16:30:08.298Z,1.60
2022-10-16T16:32:35.861Z,1.63
2022-10-16T16:35:03.295Z,1.60
2022-10-16T16:37:30.407Z,1.70
2022-10-16T16:39:59.382Z,1.40
2022-10-16T16:42:29.088Z,1.65
2022-10-16T16:44:55.705Z,1.70
2022-10-16T16:47:22.531Z,1.45
2022-10-16T16:49:49.078Z,2.00
2022-10-16T16:52:15.964Z,1.52
2022-10-16T16:54:43.149Z,1.70
2022-10-16T16:57:09.740Z,1.75
2022-10-16T16:59:36.717Z,1.70
2022-10-16T17:02:04.020Z,2.42
2022-10-16T17:04:30.710Z,1.58
2022-10-16T17:06:57.898Z,1.92
2022-10-16T17:09:24.798Z,2.10
2022-10-16T17:11:51.378Z,1.77
2022-10-16T17:14:18.060Z,1.70
2022-10-16T17:16:45.208Z,1.63
2022-10-16T17:19:14.676Z,2.15
2022-10-16T17:21:42.117Z,2.05
2022-10-16T17:24:08.981Z,2.50
2022-10-16T17:26:38.411Z,2.20
2022-10-16T17:29:05.416Z,2.80
2022-10-16T17:31:34.966Z,2.63
2022-10-16T17:34:03.092Z,2.70
2022-10-16T17:36:32.995Z,2.45
2022-10-16T17:39:10.751Z,2.55
2022-10-16T17:41:37.809Z,2.70
2022-10-16T17:44:07.469Z,2.85
2022-10-16T17:46:38.316Z,3.55
2022-10-16T17:49:08.001Z,2.92
2022-10-16T17:51:34.664Z,2.55
2022-10-16T17:54:01.881Z,2.70
2022-10-16T17:56:29.770Z,3.28
2022-10-16T17:59:00.050Z,2.65
2022-10-16T18:01:30.058Z,3.03
2022-10-16T18:04:02.555Z,3.13
2022-10-16T18:06:29.565Z,3.70
2022-10-16T18:08:57.919Z,3.88
2022-10-16T18:11:24.827Z,4.60
2022-10-16T18:13:56.629Z,5.32
2022-10-16T18:16:24.650Z,6.25
2022-10-16T18:18:51.563Z,7.65
2022-10-16T18:21:20.322Z,10.55
2022-10-16T18:23:51.023Z,11.35
2022-10-16T18:26:21.122Z,12.88
2022-10-16T18:28:48.157Z,13.80
2022-10-16T18:31:17.032Z,14.57
2022-10-16T18:33:48.166Z,14.77
2022-10-16T18:36:15.769Z,15.63
2022-10-16T18:38:42.977Z,13.75
2022-10-16T18:41:09.977Z,14.50
2022-10-16T18:43:38.439Z,13.65
2022-10-16T18:46:07.909Z,12.88
2022-10-16T18:48:35.002Z,11.13
2022-10-16T18:51:08.332Z,10.88
2022-10-16T18:53:35.121Z,10.18
2022-10-16T18:56:01.906Z,9.27
2022-10-16T18:58:28.418Z,8.60
2022-10-16T19:00:54.909Z,8.27
2022-10-16T19:03:21.628Z,8.02
2022-10-16T19:05:48.284Z,7.70
2022-10-16T19:08:15.101Z,7.55
2022-10-16T19:10:42.297Z,7.22
2022-10-16T19:13:11.015Z,6.90
2022-10-16T19:15:49.703Z,6.90
2022-10-16T19:18:26.972Z,6.38
2022-10-16T19:21:02.121Z,6.85
2022-10-16T19:23:28.662Z,7.00
2022-10-16T19:25:55.338Z,7.35
2022-10-16T19:28:22.032Z,7.57
2022-10-16T19:30:48.639Z,7.60
2022-10-16T19:33:15.105Z,8.30
2022-10-16T19:35:41.786Z,7.18
2022-10-16T19:38:08.436Z,7.53
2022-10-16T19:40:34.972Z,7.90
2022-10-16T19:43:01.651Z,8.07
2022-10-16T19:45:28.147Z,7.85
2022-10-16T19:47:54.662Z,7.85
2022-10-16T19:50:21.315Z,7.45
2022-10-16T19:52:47.807Z,7.68
2022-10-16T19:55:14.833Z,7.30
2022-10-16T19:57:41.301Z,7.93
2022-10-16T20:00:09.068Z,7.10
2022-10-16T20:02:36.263Z,7.13
2022-10-16T20:05:02.790Z,6.45
2022-10-16T20:07:32.563Z,6.95
2022-10-16T20:10:01.076Z,6.43
2022-10-16T20:12:27.670Z,5.75
2022-10-16T20:14:54.331Z,5.82
2022-10-16T20:17:20.920Z,5.90
2022-10-16T20:19:47.410Z,5.20
2022-10-16T20:22:13.897Z,5.72
2022-10-16T20:24:40.766Z,5.35
2022-10-16T20:27:07.211Z,5.38
2022-10-16T20:29:33.693Z,5.32
2022-10-16T20:32:00.193Z,5.30
2022-10-16T20:34:26.724Z,5.22
2022-10-16T20:36:53.449Z,5.30
2022-10-16T20:39:20.039Z,4.78
2022-10-16T20:41:46.772Z,5.50
2022-10-16T20:44:13.311Z,5.22
2022-10-16T20:46:39.935Z,4.82
2022-10-16T20:49:11.094Z,4.90
2022-10-16T20:51:43.950Z,5.82
2022-10-16T20:54:11.560Z,5.18
2022-10-16T20:56:38.161Z,5.20
2022-10-16T20:59:05.766Z,5.47
2022-10-16T21:01:32.619Z,5.93
2022-10-16T21:04:01.951Z,5.30
2022-10-16T21:06:29.453Z,4.93
2022-10-16T21:08:56.031Z,4.57
2022-10-16T21:11:27.470Z,4.57
2022-10-16T21:13:55.811Z,5.60
2022-10-16T21:16:23.138Z,4.55
2022-10-16T21:18:50.125Z,5.13
2022-10-16T21:21:25.398Z,4.60
2022-10-16T21:23:52.681Z,5.00
2022-10-16T21:26:25.970Z,5.03
2022-10-16T21:29:04.870Z,5.00
2022-10-16T21:31:33.057Z,4.53
2022-10-16T21:33:59.754Z,4.40
2022-10-16T21:36:32.048Z,4.72
2022-10-16T21:39:08.151Z,4.60
2022-10-16T21:41:35.840Z,4.65
2022-10-16T21:44:03.407Z,4.32
2022-10-16T21:46:32.877Z,4.43
2022-10-16T21:49:02.413Z,4.32
2022-10-16T21:51:32.482Z,4.00
2022-10-16T21:53:59.657Z,4.38
2022-10-16T21:56:26.152Z,3.92
2022-10-16T21:58:52.715Z,4.30
2022-10-16T22:01:21.565Z,3.60
2022-10-16T22:03:48.706Z,3.58
2022-10-16T22:06:17.980Z,3.97
2022-10-16T22:08:47.134Z,3.88
2022-10-16T22:11:26.607Z,3.70
2022-10-16T22:13:56.666Z,3.60
2022-10-16T22:16:26.459Z,3.72
2022-10-16T22:18:57.236Z,3.55
2022-10-16T22:21:24.387Z,3.53
2022-10-16T22:23:50.995Z,3.72
2022-10-16T22:26:17.685Z,3.30
2022-10-16T22:28:44.231Z,3.17
2022-10-16T22:31:12.646Z,3.45
2022-10-16T22:33:40.228Z,3.25
2022-10-16T22:36:10.170Z,3.38
2022-10-16T22:38:37.322Z,3.08
2022-10-16T22:41:14.467Z,3.05
2022-10-16T22:43:44.060Z,3.58
2022-10-16T22:46:14.229Z,3.40
2022-10-16T22:48:41.401Z,3.40
2022-10-16T22:51:08.490Z,2.97
2022-10-16T22:53:35.211Z,3.47
2022-10-16T22:56:01.820Z,3.00
2022-10-16T22:58:28.518Z,2.97
2022-10-16T23:00:54.998Z,3.28
2022-10-16T23:03:21.767Z,3.13
2022-10-16T23:05:48.350Z,3.78
2022-10-16T23:08:15.358Z,3.60
2022-10-16T23:10:43.983Z,3.33
2022-10-16T23:13:11.123Z,3.33
2022-10-16T23:15:42.557Z,3.53
2022-10-16T23:18:09.204Z,3.88
2022-10-16T23:20:38.530Z,3.63
2022-10-16T23:23:05.105Z,3.78
2022-10-16T23:25:31.597Z,3.70
2022-10-16T23:27:58.139Z,3.30
2022-10-16T23:30:24.854Z,3.50
2022-10-16T23:32:51.378Z,3.50
2022-10-16T23:35:17.929Z,3.53
2022-10-16T23:37:44.498Z,3.38
2022-10-16T23:40:11.407Z,3.30
2022-10-16T23:42:37.900Z,3.80
2022-10-16T23:45:04.985Z,3.20
2022-10-16T23:47:31.482Z,3.33
2022-10-16T23:49:57.961Z,2.83
2022-10-16T23:52:24.480Z,3.08
2022-10-16T23:54:50.925Z,3.35
2022-10-16T23:57:17.472Z,3.45
2022-10-16T23:59:43.975Z,3.40
